sensor_id;sensor_type;location;lat;lon;timestamp;temperature;humidity
5683;DHT22;2864;49.220;8.654;2022-08-01T01:39:05;20.10;72.00
5683;DHT22;2864;49.220;8.654;2022-08-01T01:48:54;20.00;72.90
5683;DHT22;2864;49.220;8.654;2022-08-01T01:58:42;19.80;74.60
5683;DHT22;2864;49.220;8.654;2022-08-01T02:38:31;18.90;81.60
5683;DHT22;2864;49.220;8.654;2022-08-01T02:53:20;18.80;84.50
5683;DHT22;2864;49.220;8.654;2022-08-01T03:03:12;18.60;87.20
5683;DHT22;2864;49.220;8.654;2022-08-01T03:08:07;18.60;88.70
5683;DHT22;2864;49.220;8.654;2022-08-01T03:15:31;18.70;90.10
5683;DHT22;2864;49.220;8.654;2022-08-01T03:22:52;18.60;90.30
5683;DHT22;2864;49.220;8.654;2022-08-01T03:27:50;18.60;91.60
5683;DHT22;2864;49.220;8.654;2022-08-01T03:45:11;18.90;91.80
5683;DHT22;2864;49.220;8.654;2022-08-01T04:02:26;18.70;93.00
5683;DHT22;2864;49.220;8.654;2022-08-01T04:07:29;18.60;93.40
5683;DHT22;2864;49.220;8.654;2022-08-01T04:24:33;18.30;97.10
5683;DHT22;2864;49.220;8.654;2022-08-01T04:34:25;18.50;99.10
5683;DHT22;2864;49.220;8.654;2022-08-01T04:36:54;18.40;99.00
5683;DHT22;2864;49.220;8.654;2022-08-01T04:58:53;19.10;99.90
5683;DHT22;2864;49.220;8.654;2022-08-01T05:04:03;19.40;99.90
5683;DHT22;2864;49.220;8.654;2022-08-01T06:34:06;22.40;92.00
5683;DHT22;2864;49.220;8.654;2022-08-01T06:38:57;22.90;93.40
5683;DHT22;2864;49.220;8.654;2022-08-01T06:48:41;23.10;88.60
5683;DHT22;2864;49.220;8.654;2022-08-01T06:51:07;23.10;89.20
5683;DHT22;2864;49.220;8.654;2022-08-01T06:53:34;23.40;88.90
5683;DHT22;2864;49.220;8.654;2022-08-01T06:56:00;23.10;88.10
5683;DHT22;2864;49.220;8.654;2022-08-01T06:58:26;23.20;88.00
5683;DHT22;2864;49.220;8.654;2022-08-01T07:00:51;23.20;87.90
5683;DHT22;2864;49.220;8.654;2022-08-01T07:03:17;23.20;88.20
5683;DHT22;2864;49.220;8.654;2022-08-01T07:05:42;23.30;87.60
5683;DHT22;2864;49.220;8.654;2022-08-01T07:08:08;23.50;87.00
5683;DHT22;2864;49.220;8.654;2022-08-01T07:10:33;23.60;87.20
5683;DHT22;2864;49.220;8.654;2022-08-01T07:12:59;23.60;84.60
5683;DHT22;2864;49.220;8.654;2022-08-01T07:15:24;23.60;83.20
5683;DHT22;2864;49.220;8.654;2022-08-01T07:17:52;23.70;83.10
5683;DHT22;2864;49.220;8.654;2022-08-01T07:20:18;23.80;82.60
5683;DHT22;2864;49.220;8.654;2022-08-01T07:22:44;23.90;82.30
5683;DHT22;2864;49.220;8.654;2022-08-01T07:25:10;24.00;82.30
5683;DHT22;2864;49.220;8.654;2022-08-01T07:27:36;24.10;81.40
5683;DHT22;2864;49.220;8.654;2022-08-01T07:30:03;24.20;81.50
5683;DHT22;2864;49.220;8.654;2022-08-01T07:32:29;24.50;81.30
5683;DHT22;2864;49.220;8.654;2022-08-01T07:34:55;24.80;80.90
5683;DHT22;2864;49.220;8.654;2022-08-01T07:37:20;25.80;81.80
5683;DHT22;2864;49.220;8.654;2022-08-01T07:39:46;24.70;80.60
5683;DHT22;2864;49.220;8.654;2022-08-01T07:42:11;25.70;81.90
5683;DHT22;2864;49.220;8.654;2022-08-01T07:44:37;24.50;80.80
5683;DHT22;2864;49.220;8.654;2022-08-01T07:47:04;24.50;80.50
5683;DHT22;2864;49.220;8.654;2022-08-01T07:49:30;24.60;80.50
5683;DHT22;2864;49.220;8.654;2022-08-01T07:51:56;24.80;80.40
5683;DHT22;2864;49.220;8.654;2022-08-01T07:54:21;25.10;80.60
5683;DHT22;2864;49.220;8.654;2022-08-01T07:56:49;25.30;80.20
5683;DHT22;2864;49.220;8.654;2022-08-01T07:59:15;25.20;79.60
5683;DHT22;2864;49.220;8.654;2022-08-01T08:01:40;25.20;79.20
5683;DHT22;2864;49.220;8.654;2022-08-01T08:04:07;25.30;79.70
5683;DHT22;2864;49.220;8.654;2022-08-01T08:06:32;25.40;80.00
5683;DHT22;2864;49.220;8.654;2022-08-01T08:08:58;25.40;79.80
5683;DHT22;2864;49.220;8.654;2022-08-01T08:11:23;25.40;78.50
5683;DHT22;2864;49.220;8.654;2022-08-01T08:13:49;25.30;78.90
5683;DHT22;2864;49.220;8.654;2022-08-01T08:16:14;25.50;78.50
5683;DHT22;2864;49.220;8.654;2022-08-01T08:18:40;25.20;78.20
5683;DHT22;2864;49.220;8.654;2022-08-01T08:21:05;25.60;77.70
5683;DHT22;2864;49.220;8.654;2022-08-01T08:23:31;26.30;76.90
5683;DHT22;2864;49.220;8.654;2022-08-01T08:26:15;26.70;76.00
5683;DHT22;2864;49.220;8.654;2022-08-01T08:28:40;26.40;75.50
5683;DHT22;2864;49.220;8.654;2022-08-01T08:31:07;26.30;75.40
5683;DHT22;2864;49.220;8.654;2022-08-01T08:33:33;26.40;75.30
5683;DHT22;2864;49.220;8.654;2022-08-01T08:35:58;26.70;74.80
5683;DHT22;2864;49.220;8.654;2022-08-01T08:38:24;26.20;74.60
5683;DHT22;2864;49.220;8.654;2022-08-01T08:40:52;26.30;75.20
5683;DHT22;2864;49.220;8.654;2022-08-01T08:43:18;26.20;75.10
5683;DHT22;2864;49.220;8.654;2022-08-01T08:45:45;26.20;75.10
5683;DHT22;2864;49.220;8.654;2022-08-01T08:48:12;26.30;74.70
5683;DHT22;2864;49.220;8.654;2022-08-01T08:50:38;26.10;73.80
5683;DHT22;2864;49.220;8.654;2022-08-01T08:53:09;26.70;74.00
5683;DHT22;2864;49.220;8.654;2022-08-01T08:55:35;26.00;73.90
5683;DHT22;2864;49.220;8.654;2022-08-01T08:58:01;26.20;74.20
5683;DHT22;2864;49.220;8.654;2022-08-01T09:00:31;26.10;74.00
5683;DHT22;2864;49.220;8.654;2022-08-01T09:02:57;26.00;74.40
5683;DHT22;2864;49.220;8.654;2022-08-01T09:05:23;26.50;73.00
5683;DHT22;2864;49.220;8.654;2022-08-01T09:07:51;26.70;72.60
5683;DHT22;2864;49.220;8.654;2022-08-01T09:10:17;26.80;71.10
5683;DHT22;2864;49.220;8.654;2022-08-01T09:13:14;26.60;70.70
5683;DHT22;2864;49.220;8.654;2022-08-01T09:15:40;26.50;71.60
5683;DHT22;2864;49.220;8.654;2022-08-01T09:18:06;26.60;71.40
5683;DHT22;2864;49.220;8.654;2022-08-01T09:20:32;26.70;70.50
5683;DHT22;2864;49.220;8.654;2022-08-01T09:23:02;26.50;70.00
5683;DHT22;2864;49.220;8.654;2022-08-01T09:25:29;26.40;70.10
5683;DHT22;2864;49.220;8.654;2022-08-01T09:28:04;26.20;70.90
5683;DHT22;2864;49.220;8.654;2022-08-01T09:30:37;26.40;71.00
5683;DHT22;2864;49.220;8.654;2022-08-01T09:33:04;26.60;70.60
5683;DHT22;2864;49.220;8.654;2022-08-01T09:35:33;27.10;69.30
5683;DHT22;2864;49.220;8.654;2022-08-01T09:38:20;27.40;68.90
5683;DHT22;2864;49.220;8.654;2022-08-01T09:40:58;27.60;67.70
5683;DHT22;2864;49.220;8.654;2022-08-01T09:43:26;27.70;68.00
5683;DHT22;2864;49.220;8.654;2022-08-01T09:45:52;27.60;68.20
5683;DHT22;2864;49.220;8.654;2022-08-01T09:48:18;27.60;68.40
5683;DHT22;2864;49.220;8.654;2022-08-01T09:50:46;27.20;68.60
5683;DHT22;2864;49.220;8.654;2022-08-01T09:53:13;27.00;68.60
5683;DHT22;2864;49.220;8.654;2022-08-01T09:55:40;27.20;68.40
5683;DHT22;2864;49.220;8.654;2022-08-01T09:58:06;27.40;67.60
5683;DHT22;2864;49.220;8.654;2022-08-01T10:00:33;27.60;67.90
5683;DHT22;2864;49.220;8.654;2022-08-01T10:02:59;27.30;68.10
5683;DHT22;2864;49.220;8.654;2022-08-01T10:05:32;27.50;67.50
5683;DHT22;2864;49.220;8.654;2022-08-01T10:08:00;27.20;68.20
5683;DHT22;2864;49.220;8.654;2022-08-01T10:10:27;27.40;68.10
5683;DHT22;2864;49.220;8.654;2022-08-01T10:12:56;27.50;68.50
5683;DHT22;2864;49.220;8.654;2022-08-01T10:15:22;27.90;67.80
5683;DHT22;2864;49.220;8.654;2022-08-01T10:17:57;27.80;67.60
5683;DHT22;2864;49.220;8.654;2022-08-01T10:20:26;28.00;67.40
5683;DHT22;2864;49.220;8.654;2022-08-01T10:22:54;28.10;66.90
5683;DHT22;2864;49.220;8.654;2022-08-01T10:25:21;28.10;67.40
5683;DHT22;2864;49.220;8.654;2022-08-01T10:27:52;27.60;68.10
5683;DHT22;2864;49.220;8.654;2022-08-01T10:30:20;27.70;67.70
5683;DHT22;2864;49.220;8.654;2022-08-01T10:32:46;27.60;67.60
5683;DHT22;2864;49.220;8.654;2022-08-01T10:35:12;27.70;67.70
5683;DHT22;2864;49.220;8.654;2022-08-01T10:37:44;27.50;67.60
5683;DHT22;2864;49.220;8.654;2022-08-01T10:40:15;27.60;67.70
5683;DHT22;2864;49.220;8.654;2022-08-01T10:42:44;27.50;67.80
5683;DHT22;2864;49.220;8.654;2022-08-01T10:45:15;27.40;67.80
5683;DHT22;2864;49.220;8.654;2022-08-01T10:48:15;27.20;68.30
5683;DHT22;2864;49.220;8.654;2022-08-01T10:50:52;27.20;68.60
5683;DHT22;2864;49.220;8.654;2022-08-01T10:53:24;27.10;68.90
5683;DHT22;2864;49.220;8.654;2022-08-01T10:58:29;27.00;68.50
5683;DHT22;2864;49.220;8.654;2022-08-01T11:03:55;27.10;68.90
5683;DHT22;2864;49.220;8.654;2022-08-01T11:06:25;27.40;68.50
5683;DHT22;2864;49.220;8.654;2022-08-01T11:08:53;27.40;68.70
5683;DHT22;2864;49.220;8.654;2022-08-01T11:11:20;27.50;69.00
5683;DHT22;2864;49.220;8.654;2022-08-01T11:16:31;28.00;67.40
5683;DHT22;2864;49.220;8.654;2022-08-01T11:18:57;28.10;67.20
5683;DHT22;2864;49.220;8.654;2022-08-01T11:32:47;29.10;66.00
5683;DHT22;2864;49.220;8.654;2022-08-01T11:35:14;29.50;64.80
5683;DHT22;2864;49.220;8.654;2022-08-01T11:37:40;30.00;64.70
5683;DHT22;2864;49.220;8.654;2022-08-01T11:40:20;30.80;63.50
5683;DHT22;2864;49.220;8.654;2022-08-01T11:42:47;31.20;63.10
5683;DHT22;2864;49.220;8.654;2022-08-01T11:45:12;31.40;61.50
5683;DHT22;2864;49.220;8.654;2022-08-01T11:47:49;31.20;61.60
5683;DHT22;2864;49.220;8.654;2022-08-01T11:50:32;31.20;61.20
5683;DHT22;2864;49.220;8.654;2022-08-01T11:53:08;31.00;60.90
5683;DHT22;2864;49.220;8.654;2022-08-01T11:55:33;30.60;62.00
5683;DHT22;2864;49.220;8.654;2022-08-01T11:58:07;31.10;62.10
5683;DHT22;2864;49.220;8.654;2022-08-01T12:00:33;30.80;61.30
5683;DHT22;2864;49.220;8.654;2022-08-01T12:03:01;31.20;60.80
5683;DHT22;2864;49.220;8.654;2022-08-01T12:05:28;31.00;60.20
5683;DHT22;2864;49.220;8.654;2022-08-01T12:07:54;30.10;62.20
5683;DHT22;2864;49.220;8.654;2022-08-01T12:10:22;29.90;62.50
5683;DHT22;2864;49.220;8.654;2022-08-01T12:12:53;30.10;62.90
5683;DHT22;2864;49.220;8.654;2022-08-01T12:15:20;30.30;63.00
5683;DHT22;2864;49.220;8.654;2022-08-01T12:17:55;30.60;62.20
5683;DHT22;2864;49.220;8.654;2022-08-01T12:20:22;29.80;61.50
5683;DHT22;2864;49.220;8.654;2022-08-01T12:22:56;29.80;61.80
5683;DHT22;2864;49.220;8.654;2022-08-01T12:25:22;29.70;62.00
5683;DHT22;2864;49.220;8.654;2022-08-01T12:27:48;29.50;61.40
5683;DHT22;2864;49.220;8.654;2022-08-01T12:30:16;29.40;61.50
5683;DHT22;2864;49.220;8.654;2022-08-01T12:32:45;29.40;61.80
5683;DHT22;2864;49.220;8.654;2022-08-01T12:35:14;29.60;61.90
5683;DHT22;2864;49.220;8.654;2022-08-01T12:37:42;29.70;61.60
5683;DHT22;2864;49.220;8.654;2022-08-01T12:40:18;29.80;61.10
5683;DHT22;2864;49.220;8.654;2022-08-01T12:42:47;30.00;61.30
5683;DHT22;2864;49.220;8.654;2022-08-01T12:45:16;30.20;61.60
5683;DHT22;2864;49.220;8.654;2022-08-01T12:47:43;30.20;61.30
5683;DHT22;2864;49.220;8.654;2022-08-01T12:50:14;30.40;61.10
5683;DHT22;2864;49.220;8.654;2022-08-01T12:52:41;30.80;60.80
5683;DHT22;2864;49.220;8.654;2022-08-01T12:55:12;30.90;59.10
5683;DHT22;2864;49.220;8.654;2022-08-01T12:57:40;30.70;59.30
5683;DHT22;2864;49.220;8.654;2022-08-01T13:00:12;31.10;58.70
5683;DHT22;2864;49.220;8.654;2022-08-01T13:02:39;31.80;58.70
5683;DHT22;2864;49.220;8.654;2022-08-01T13:05:05;31.60;58.50
5683;DHT22;2864;49.220;8.654;2022-08-01T13:10:11;31.40;59.00
5683;DHT22;2864;49.220;8.654;2022-08-01T13:12:39;31.40;58.90
5683;DHT22;2864;49.220;8.654;2022-08-01T13:15:26;30.90;58.90
5683;DHT22;2864;49.220;8.654;2022-08-01T13:17:53;30.70;58.70
5683;DHT22;2864;49.220;8.654;2022-08-01T13:20:24;31.20;58.50
5683;DHT22;2864;49.220;8.654;2022-08-01T13:22:50;30.80;59.50
5683;DHT22;2864;49.220;8.654;2022-08-01T13:25:17;31.20;58.50
5683;DHT22;2864;49.220;8.654;2022-08-01T13:27:42;32.40;58.20
5683;DHT22;2864;49.220;8.654;2022-08-01T13:30:14;32.90;57.60
5683;DHT22;2864;49.220;8.654;2022-08-01T13:32:40;33.60;56.50
5683;DHT22;2864;49.220;8.654;2022-08-01T13:35:07;33.20;56.60
5683;DHT22;2864;49.220;8.654;2022-08-01T13:37:33;33.70;55.90
5683;DHT22;2864;49.220;8.654;2022-08-01T13:39:59;34.50;54.60
5683;DHT22;2864;49.220;8.654;2022-08-01T13:42:24;33.60;55.60
5683;DHT22;2864;49.220;8.654;2022-08-01T13:44:50;33.10;56.00
5683;DHT22;2864;49.220;8.654;2022-08-01T13:47:15;32.50;56.20
5683;DHT22;2864;49.220;8.654;2022-08-01T13:49:41;31.50;57.60
5683;DHT22;2864;49.220;8.654;2022-08-01T13:52:07;31.50;57.60
5683;DHT22;2864;49.220;8.654;2022-08-01T13:54:33;31.20;57.50
5683;DHT22;2864;49.220;8.654;2022-08-01T13:56:59;31.00;57.80
5683;DHT22;2864;49.220;8.654;2022-08-01T13:59:24;31.00;57.80
5683;DHT22;2864;49.220;8.654;2022-08-01T14:01:50;30.90;57.20
5683;DHT22;2864;49.220;8.654;2022-08-01T14:04:16;30.50;58.20
5683;DHT22;2864;49.220;8.654;2022-08-01T14:06:41;30.40;57.70
5683;DHT22;2864;49.220;8.654;2022-08-01T14:09:07;28.80;57.40
5683;DHT22;2864;49.220;8.654;2022-08-01T14:11:34;29.80;58.00
5683;DHT22;2864;49.220;8.654;2022-08-01T14:14:00;30.00;58.30
5683;DHT22;2864;49.220;8.654;2022-08-01T14:16:25;30.10;58.20
5683;DHT22;2864;49.220;8.654;2022-08-01T14:18:51;30.90;57.40
5683;DHT22;2864;49.220;8.654;2022-08-01T14:21:17;31.20;57.10
5683;DHT22;2864;49.220;8.654;2022-08-01T14:23:42;31.80;56.40
5683;DHT22;2864;49.220;8.654;2022-08-01T14:26:08;32.20;56.30
5683;DHT22;2864;49.220;8.654;2022-08-01T14:28:35;32.10;55.80
5683;DHT22;2864;49.220;8.654;2022-08-01T14:31:00;31.80;56.10
5683;DHT22;2864;49.220;8.654;2022-08-01T14:33:26;30.60;57.10
5683;DHT22;2864;49.220;8.654;2022-08-01T14:35:52;30.60;57.20
5683;DHT22;2864;49.220;8.654;2022-08-01T14:38:18;30.30;57.90
5683;DHT22;2864;49.220;8.654;2022-08-01T14:40:43;29.80;58.30
5683;DHT22;2864;49.220;8.654;2022-08-01T14:43:13;29.70;58.50
5683;DHT22;2864;49.220;8.654;2022-08-01T14:45:39;29.50;58.80
5683;DHT22;2864;49.220;8.654;2022-08-01T14:48:04;29.60;59.00
5683;DHT22;2864;49.220;8.654;2022-08-01T14:50:30;29.60;59.00
5683;DHT22;2864;49.220;8.654;2022-08-01T14:52:56;29.60;58.30
5683;DHT22;2864;49.220;8.654;2022-08-01T14:55:22;29.50;58.20
5683;DHT22;2864;49.220;8.654;2022-08-01T14:57:50;29.50;58.70
5683;DHT22;2864;49.220;8.654;2022-08-01T15:00:16;29.60;58.20
5683;DHT22;2864;49.220;8.654;2022-08-01T15:02:42;29.60;58.10
5683;DHT22;2864;49.220;8.654;2022-08-01T15:05:08;29.30;58.00
5683;DHT22;2864;49.220;8.654;2022-08-01T15:07:35;29.60;57.90
5683;DHT22;2864;49.220;8.654;2022-08-01T15:10:01;29.60;57.90
5683;DHT22;2864;49.220;8.654;2022-08-01T15:12:26;30.00;57.40
5683;DHT22;2864;49.220;8.654;2022-08-01T15:14:52;30.00;57.70
5683;DHT22;2864;49.220;8.654;2022-08-01T15:19:44;31.30;56.60
5683;DHT22;2864;49.220;8.654;2022-08-01T15:22:10;31.30;56.50
5683;DHT22;2864;49.220;8.654;2022-08-01T15:24:35;32.10;55.90
5683;DHT22;2864;49.220;8.654;2022-08-01T15:27:01;32.70;55.50
5683;DHT22;2864;49.220;8.654;2022-08-01T15:29:27;32.60;55.40
5683;DHT22;2864;49.220;8.654;2022-08-01T15:31:52;34.20;54.60
5683;DHT22;2864;49.220;8.654;2022-08-01T15:34:18;34.30;54.00
5683;DHT22;2864;49.220;8.654;2022-08-01T15:36:44;34.70;53.90
5683;DHT22;2864;49.220;8.654;2022-08-01T15:39:10;33.20;55.00
5683;DHT22;2864;49.220;8.654;2022-08-01T15:41:35;31.00;56.30
5683;DHT22;2864;49.220;8.654;2022-08-01T15:44:01;30.80;56.90
5683;DHT22;2864;49.220;8.654;2022-08-01T15:46:27;30.60;56.90
5683;DHT22;2864;49.220;8.654;2022-08-01T15:48:52;30.00;57.70
5683;DHT22;2864;49.220;8.654;2022-08-01T15:51:18;29.60;57.30
5683;DHT22;2864;49.220;8.654;2022-08-01T15:53:43;29.30;57.50
5683;DHT22;2864;49.220;8.654;2022-08-01T15:56:11;29.00;57.70
5683;DHT22;2864;49.220;8.654;2022-08-01T15:58:37;28.90;57.90
5683;DHT22;2864;49.220;8.654;2022-08-01T16:01:03;28.70;58.70
5683;DHT22;2864;49.220;8.654;2022-08-01T16:03:28;28.20;58.80
5683;DHT22;2864;49.220;8.654;2022-08-01T16:05:54;28.30;58.70
5683;DHT22;2864;49.220;8.654;2022-08-01T16:08:19;28.10;59.10
5683;DHT22;2864;49.220;8.654;2022-08-01T16:10:45;28.00;59.10
5683;DHT22;2864;49.220;8.654;2022-08-01T16:13:11;28.10;59.00
5683;DHT22;2864;49.220;8.654;2022-08-01T16:15:37;28.20;59.00
5683;DHT22;2864;49.220;8.654;2022-08-01T16:18:04;28.10;58.70
5683;DHT22;2864;49.220;8.654;2022-08-01T16:20:30;27.90;58.80
5683;DHT22;2864;49.220;8.654;2022-08-01T16:22:55;28.00;58.50
5683;DHT22;2864;49.220;8.654;2022-08-01T16:25:21;27.80;58.60
5683;DHT22;2864;49.220;8.654;2022-08-01T16:27:47;28.40;59.00
5683;DHT22;2864;49.220;8.654;2022-08-01T16:30:12;28.00;59.00
5683;DHT22;2864;49.220;8.654;2022-08-01T16:32:38;28.10;59.10
5683;DHT22;2864;49.220;8.654;2022-08-01T16:35:04;28.30;59.10
5683;DHT22;2864;49.220;8.654;2022-08-01T16:37:29;28.10;59.20
5683;DHT22;2864;49.220;8.654;2022-08-01T16:39:55;28.40;59.00
5683;DHT22;2864;49.220;8.654;2022-08-01T16:42:20;28.90;58.40
5683;DHT22;2864;49.220;8.654;2022-08-01T16:44:46;29.30;58.10
5683;DHT22;2864;49.220;8.654;2022-08-01T16:47:11;29.40;58.20
5683;DHT22;2864;49.220;8.654;2022-08-01T16:49:37;29.20;58.10
5683;DHT22;2864;49.220;8.654;2022-08-01T16:52:03;29.10;58.20
5683;DHT22;2864;49.220;8.654;2022-08-01T16:54:28;29.00;58.30
5683;DHT22;2864;49.220;8.654;2022-08-01T16:56:54;28.60;58.60
5683;DHT22;2864;49.220;8.654;2022-08-01T16:59:20;28.30;58.80
5683;DHT22;2864;49.220;8.654;2022-08-01T17:01:45;28.50;59.00
5683;DHT22;2864;49.220;8.654;2022-08-01T17:04:11;29.10;59.50
5683;DHT22;2864;49.220;8.654;2022-08-01T17:06:37;28.10;59.40
5683;DHT22;2864;49.220;8.654;2022-08-01T17:09:03;27.90;59.60
5683;DHT22;2864;49.220;8.654;2022-08-01T17:11:29;27.60;59.60
5683;DHT22;2864;49.220;8.654;2022-08-01T17:13:54;27.60;59.80
5683;DHT22;2864;49.220;8.654;2022-08-01T17:16:20;27.40;60.60
5683;DHT22;2864;49.220;8.654;2022-08-01T17:18:46;27.30;60.30
5683;DHT22;2864;49.220;8.654;2022-08-01T17:21:12;27.20;60.40
5683;DHT22;2864;49.220;8.654;2022-08-01T17:23:37;27.20;60.30
5683;DHT22;2864;49.220;8.654;2022-08-01T17:26:03;27.20;60.20
5683;DHT22;2864;49.220;8.654;2022-08-01T17:28:29;27.20;60.40
5683;DHT22;2864;49.220;8.654;2022-08-01T17:30:54;27.50;60.70
5683;DHT22;2864;49.220;8.654;2022-08-01T17:33:20;27.20;60.70
5683;DHT22;2864;49.220;8.654;2022-08-01T17:35:46;27.20;60.90
5683;DHT22;2864;49.220;8.654;2022-08-01T17:38:11;27.20;61.00
5683;DHT22;2864;49.220;8.654;2022-08-01T17:40:37;27.20;61.40
5683;DHT22;2864;49.220;8.654;2022-08-01T17:43:02;26.70;61.30
5683;DHT22;2864;49.220;8.654;2022-08-01T17:45:28;27.10;61.70
5683;DHT22;2864;49.220;8.654;2022-08-01T17:47:53;26.50;61.60
5683;DHT22;2864;49.220;8.654;2022-08-01T17:50:19;26.40;61.80
5683;DHT22;2864;49.220;8.654;2022-08-01T17:52:44;26.60;62.30
5683;DHT22;2864;49.220;8.654;2022-08-01T17:55:11;26.30;62.30
5683;DHT22;2864;49.220;8.654;2022-08-01T17:57:36;26.40;62.70
5683;DHT22;2864;49.220;8.654;2022-08-01T18:00:04;26.20;62.60
5683;DHT22;2864;49.220;8.654;2022-08-01T18:02:30;26.10;62.60
5683;DHT22;2864;49.220;8.654;2022-08-01T18:04:56;26.00;62.80
5683;DHT22;2864;49.220;8.654;2022-08-01T18:07:21;26.00;63.00
5683;DHT22;2864;49.220;8.654;2022-08-01T18:09:47;26.00;63.30
5683;DHT22;2864;49.220;8.654;2022-08-01T18:12:13;25.90;63.40
5683;DHT22;2864;49.220;8.654;2022-08-01T18:14:40;25.90;63.70
5683;DHT22;2864;49.220;8.654;2022-08-01T18:17:06;25.90;63.60
5683;DHT22;2864;49.220;8.654;2022-08-01T18:19:32;26.20;64.20
5683;DHT22;2864;49.220;8.654;2022-08-01T18:21:57;26.40;64.40
5683;DHT22;2864;49.220;8.654;2022-08-01T18:24:23;25.70;63.90
5683;DHT22;2864;49.220;8.654;2022-08-01T18:26:49;25.70;64.10
5683;DHT22;2864;49.220;8.654;2022-08-01T18:29:16;26.20;64.70
5683;DHT22;2864;49.220;8.654;2022-08-01T18:31:42;25.60;64.40
5683;DHT22;2864;49.220;8.654;2022-08-01T18:34:07;25.50;64.60
5683;DHT22;2864;49.220;8.654;2022-08-01T18:36:33;25.50;64.90
5683;DHT22;2864;49.220;8.654;2022-08-01T18:39:00;25.50;65.20
5683;DHT22;2864;49.220;8.654;2022-08-01T18:41:26;25.40;65.40
5683;DHT22;2864;49.220;8.654;2022-08-01T18:43:52;25.40;65.60
5683;DHT22;2864;49.220;8.654;2022-08-01T18:46:18;25.30;65.70
5683;DHT22;2864;49.220;8.654;2022-08-01T18:48:43;25.30;65.90
5683;DHT22;2864;49.220;8.654;2022-08-01T18:51:09;25.20;66.10
5683;DHT22;2864;49.220;8.654;2022-08-01T18:53:35;25.20;66.20
5683;DHT22;2864;49.220;8.654;2022-08-01T18:56:00;25.10;66.30
5683;DHT22;2864;49.220;8.654;2022-08-01T18:58:28;26.00;67.40
5683;DHT22;2864;49.220;8.654;2022-08-01T19:00:53;25.00;66.60
5683;DHT22;2864;49.220;8.654;2022-08-01T19:03:19;25.50;67.20
5683;DHT22;2864;49.220;8.654;2022-08-01T19:05:45;25.00;67.00
5683;DHT22;2864;49.220;8.654;2022-08-01T19:08:13;25.20;67.50
5683;DHT22;2864;49.220;8.654;2022-08-01T19:10:39;24.80;67.30
5683;DHT22;2864;49.220;8.654;2022-08-01T19:13:06;25.00;67.90
5683;DHT22;2864;49.220;8.654;2022-08-01T19:15:32;24.70;67.70
5683;DHT22;2864;49.220;8.654;2022-08-01T19:17:58;24.60;67.90
5683;DHT22;2864;49.220;8.654;2022-08-01T19:20:24;24.50;68.10
5683;DHT22;2864;49.220;8.654;2022-08-01T19:22:49;24.40;68.30
5683;DHT22;2864;49.220;8.654;2022-08-01T19:25:15;24.60;68.80
5683;DHT22;2864;49.220;8.654;2022-08-01T19:27:50;24.30;68.70
5683;DHT22;2864;49.220;8.654;2022-08-01T19:30:17;24.60;69.40
5683;DHT22;2864;49.220;8.654;2022-08-01T19:32:44;24.20;69.20
5683;DHT22;2864;49.220;8.654;2022-08-01T19:35:12;24.10;69.30
5683;DHT22;2864;49.220;8.654;2022-08-01T19:37:40;24.80;70.40
5683;DHT22;2864;49.220;8.654;2022-08-01T19:40:10;24.10;69.70
5683;DHT22;2864;49.220;8.654;2022-08-01T19:42:40;24.00;69.80
5683;DHT22;2864;49.220;8.654;2022-08-01T19:45:06;24.20;70.20
5683;DHT22;2864;49.220;8.654;2022-08-01T19:47:33;23.90;70.10
5683;DHT22;2864;49.220;8.654;2022-08-01T19:49:59;23.90;70.40
5683;DHT22;2864;49.220;8.654;2022-08-01T19:52:26;24.40;70.90
5683;DHT22;2864;49.220;8.654;2022-08-01T19:54:54;24.80;71.60
5683;DHT22;2864;49.220;8.654;2022-08-01T19:57:20;23.60;70.50
5683;DHT22;2864;49.220;8.654;2022-08-01T19:59:47;24.80;72.10
5683;DHT22;2864;49.220;8.654;2022-08-01T20:02:17;23.60;70.90
5683;DHT22;2864;49.220;8.654;2022-08-01T20:04:45;23.60;71.20
5683;DHT22;2864;49.220;8.654;2022-08-01T20:07:12;24.30;72.30
5683;DHT22;2864;49.220;8.654;2022-08-01T20:09:42;23.50;71.40
5683;DHT22;2864;49.220;8.654;2022-08-01T20:12:10;23.80;72.10
5683;DHT22;2864;49.220;8.654;2022-08-01T20:14:36;23.40;71.80
5683;DHT22;2864;49.220;8.654;2022-08-01T20:17:02;23.40;72.00
5683;DHT22;2864;49.220;8.654;2022-08-01T20:19:28;24.10;73.00
5683;DHT22;2864;49.220;8.654;2022-08-01T20:21:58;23.30;72.20
5683;DHT22;2864;49.220;8.654;2022-08-01T20:24:27;23.30;72.60
5683;DHT22;2864;49.220;8.654;2022-08-01T20:26:54;23.20;72.80
5683;DHT22;2864;49.220;8.654;2022-08-01T20:29:22;23.10;73.20
5683;DHT22;2864;49.220;8.654;2022-08-01T20:31:49;23.10;73.70
5683;DHT22;2864;49.220;8.654;2022-08-01T20:34:17;23.80;75.20
5683;DHT22;2864;49.220;8.654;2022-08-01T20:36:44;22.90;74.80
5683;DHT22;2864;49.220;8.654;2022-08-01T20:39:11;22.80;75.50
5683;DHT22;2864;49.220;8.654;2022-08-01T20:41:38;23.00;75.80
5683;DHT22;2864;49.220;8.654;2022-08-01T20:44:04;23.00;75.70
5683;DHT22;2864;49.220;8.654;2022-08-01T20:46:30;22.60;75.40
5683;DHT22;2864;49.220;8.654;2022-08-01T20:48:56;22.50;75.70
5683;DHT22;2864;49.220;8.654;2022-08-01T20:51:26;22.40;75.90
5683;DHT22;2864;49.220;8.654;2022-08-01T20:53:53;22.40;76.20
5683;DHT22;2864;49.220;8.654;2022-08-01T20:56:39;22.80;77.40
5683;DHT22;2864;49.220;8.654;2022-08-01T21:02:13;22.00;77.40
5683;DHT22;2864;49.220;8.654;2022-08-01T21:05:05;21.90;77.60
5683;DHT22;2864;49.220;8.654;2022-08-01T21:07:38;21.90;77.90
5683;DHT22;2864;49.220;8.654;2022-08-01T21:10:11;22.00;78.00
5683;DHT22;2864;49.220;8.654;2022-08-01T21:20:26;22.30;78.30
5683;DHT22;2864;49.220;8.654;2022-08-01T21:25:43;22.10;78.10
5683;DHT22;2864;49.220;8.654;2022-08-01T21:28:12;22.10;78.20
5683;DHT22;2864;49.220;8.654;2022-08-01T21:30:41;22.10;78.40
5683;DHT22;2864;49.220;8.654;2022-08-01T21:33:12;22.00;79.20
5683;DHT22;2864;49.220;8.654;2022-08-01T21:35:38;22.00;79.50
5683;DHT22;2864;49.220;8.654;2022-08-01T21:38:04;22.10;79.40
5683;DHT22;2864;49.220;8.654;2022-08-01T21:40:34;22.40;80.00
5683;DHT22;2864;49.220;8.654;2022-08-01T21:43:01;21.90;79.70
5683;DHT22;2864;49.220;8.654;2022-08-01T21:45:28;21.90;79.80
5683;DHT22;2864;49.220;8.654;2022-08-01T21:47:55;21.90;80.30
5683;DHT22;2864;49.220;8.654;2022-08-01T21:50:21;21.90;80.60
5683;DHT22;2864;49.220;8.654;2022-08-01T21:55:47;21.90;80.40
5683;DHT22;2864;49.220;8.654;2022-08-01T21:58:33;22.00;80.40
5683;DHT22;2864;49.220;8.654;2022-08-01T22:01:23;22.00;80.40
5683;DHT22;2864;49.220;8.654;2022-08-01T22:03:54;22.00;80.30
5683;DHT22;2864;49.220;8.654;2022-08-01T22:06:23;22.50;81.00
5683;DHT22;2864;49.220;8.654;2022-08-01T22:08:51;22.20;80.60
5683;DHT22;2864;49.220;8.654;2022-08-01T22:11:30;22.30;80.50
5683;DHT22;2864;49.220;8.654;2022-08-01T22:14:01;22.20;80.80
5683;DHT22;2864;49.220;8.654;2022-08-01T22:16:31;22.50;81.20
5683;DHT22;2864;49.220;8.654;2022-08-01T22:18:57;22.40;81.50
5683;DHT22;2864;49.220;8.654;2022-08-01T22:21:25;22.10;81.40
5683;DHT22;2864;49.220;8.654;2022-08-01T22:23:52;22.00;81.70
5683;DHT22;2864;49.220;8.654;2022-08-01T22:26:20;22.00;82.20
5683;DHT22;2864;49.220;8.654;2022-08-01T22:28:45;21.90;82.50
5683;DHT22;2864;49.220;8.654;2022-08-01T22:31:15;21.80;82.80
5683;DHT22;2864;49.220;8.654;2022-08-01T22:33:41;21.90;83.60
5683;DHT22;2864;49.220;8.654;2022-08-01T22:36:06;21.60;83.80
5683;DHT22;2864;49.220;8.654;2022-08-01T22:38:32;21.60;84.20
5683;DHT22;2864;49.220;8.654;2022-08-01T22:41:07;22.40;85.70
5683;DHT22;2864;49.220;8.654;2022-08-01T22:46:36;21.20;86.50